createdAt,value
2023-05-25T00:00:20.765Z,8.77
2023-05-25T00:02:24.526Z,10.85
2023-05-25T00:04:30.371Z,13.93
2023-05-25T00:06:37.301Z,9.15
2023-05-25T00:08:41.079Z,9.70
2023-05-25T00:10:43.654Z,11.13
2023-05-25T00:12:46.490Z,10.20
2023-05-25T00:14:50.593Z,10.20
2023-05-25T00:16:53.284Z,6.82
2023-05-25T00:18:57.580Z,12.88
2023-05-25T00:21:06.719Z,11.20
2023-05-25T00:23:09.383Z,12.95
2023-05-25T00:25:12.091Z,13.30
2023-05-25T00:27:14.655Z,14.40
2023-05-25T00:29:17.277Z,9.80
2023-05-25T00:31:21.615Z,11.80
2023-05-25T00:33:24.388Z,10.32
2023-05-25T00:35:27.439Z,11.65
2023-05-25T00:37:30.047Z,11.40
2023-05-25T00:39:32.718Z,10.50
2023-05-25T00:41:36.589Z,11.68
2023-05-25T00:43:39.370Z,8.98
2023-05-25T00:45:42.092Z,9.05
2023-05-25T00:47:46.743Z,12.57
2023-05-25T00:49:49.424Z,9.77
2023-05-25T00:51:53.814Z,13.00
2023-05-25T00:53:56.453Z,14.00
2023-05-25T00:56:06.096Z,9.77
2023-05-25T00:58:09.529Z,11.98
2023-05-25T01:00:13.909Z,13.02
2023-05-25T01:02:19.331Z,11.25
2023-05-25T01:04:24.378Z,11.10
2023-05-25T01:06:32.100Z,9.27
2023-05-25T01:08:36.651Z,12.75
2023-05-25T01:10:40.468Z,8.60
2023-05-25T01:12:45.397Z,8.73
2023-05-25T01:14:49.208Z,12.57
2023-05-25T01:16:53.467Z,13.50
2023-05-25T01:18:56.466Z,12.07
2023-05-25T01:21:13.358Z,12.43
2023-05-25T01:23:17.633Z,10.70
2023-05-25T01:25:25.239Z,12.10
2023-05-25T01:27:36.577Z,9.57
2023-05-25T01:29:43.340Z,9.43
2023-05-25T01:31:47.199Z,11.13
2023-05-25T01:33:51.475Z,15.38
2023-05-25T01:35:54.459Z,10.35
2023-05-25T01:37:59.987Z,11.95
2023-05-25T01:40:02.639Z,12.50
2023-05-25T01:42:05.723Z,11.68
2023-05-25T01:44:09.079Z,12.90
2023-05-25T01:46:19.412Z,11.93
2023-05-25T01:48:31.372Z,10.60
2023-05-25T01:52:45.767Z,8.90
2023-05-25T01:54:54.310Z,10.25
2023-05-25T01:57:02.329Z,10.80
2023-05-25T01:59:08.211Z,15.90
2023-05-25T02:01:11.661Z,11.85
2023-05-25T02:03:14.414Z,13.68
2023-05-25T02:05:17.170Z,14.20
2023-05-25T02:07:19.743Z,13.52
2023-05-25T02:09:22.625Z,8.93
2023-05-25T02:11:27.741Z,13.15
2023-05-25T02:13:30.384Z,10.60
2023-05-25T02:15:34.524Z,10.45
2023-05-25T02:17:37.741Z,10.40
2023-05-25T02:19:40.390Z,14.73
2023-05-25T02:21:43.137Z,14.82
2023-05-25T02:23:47.778Z,17.95
2023-05-25T02:25:51.691Z,19.10
2023-05-25T02:27:55.832Z,13.77
2023-05-25T02:29:58.495Z,13.52
2023-05-25T02:32:01.107Z,11.18
2023-05-25T02:34:04.064Z,12.50
2023-05-25T02:36:07.197Z,18.10
2023-05-25T02:38:09.809Z,12.57
2023-05-25T02:40:14.099Z,15.07
2023-05-25T02:42:16.726Z,10.32
2023-05-25T02:44:20.657Z,15.23
2023-05-25T02:46:23.694Z,12.98
2023-05-25T02:48:26.383Z,11.90
2023-05-25T02:50:29.021Z,13.07
2023-05-25T02:52:32.840Z,14.00
2023-05-25T02:54:36.250Z,15.43
2023-05-25T02:56:38.888Z,14.68
2023-05-25T02:58:42.523Z,10.70
2023-05-25T03:00:46.884Z,15.30
2023-05-25T03:02:49.931Z,13.50
2023-05-25T03:04:53.916Z,15.40
2023-05-25T03:06:56.701Z,13.40
2023-05-25T03:08:59.299Z,10.38
2023-05-25T03:11:01.954Z,17.95
2023-05-25T03:13:04.615Z,10.40
2023-05-25T03:15:09.231Z,10.30
2023-05-25T03:17:13.187Z,12.15
2023-05-25T03:19:16.134Z,12.23
2023-05-25T03:21:18.867Z,14.63
2023-05-25T03:23:21.591Z,12.02
2023-05-25T03:25:24.159Z,10.40
2023-05-25T03:27:26.803Z,21.90
2023-05-25T03:29:29.389Z,8.93
2023-05-25T03:31:32.017Z,14.77
2023-05-25T03:33:36.007Z,12.95
2023-05-25T03:35:38.660Z,13.93
2023-05-25T03:37:41.369Z,12.65
2023-05-25T03:39:44.005Z,10.60
2023-05-25T03:41:46.604Z,11.60
2023-05-25T03:43:49.239Z,14.63
2023-05-25T03:45:51.852Z,16.17
2023-05-25T03:47:54.579Z,14.60
2023-05-25T03:49:58.645Z,15.00
2023-05-25T03:52:01.526Z,19.95
2023-05-25T03:54:04.112Z,15.65
2023-05-25T03:56:07.614Z,17.58
2023-05-25T03:58:10.967Z,21.38
2023-05-25T04:00:15.556Z,10.23
2023-05-25T04:02:18.183Z,12.93
2023-05-25T04:04:21.987Z,13.13
2023-05-25T04:06:26.293Z,11.13
2023-05-25T04:08:30.138Z,16.38
2023-05-25T04:10:32.741Z,14.38
2023-05-25T04:12:36.254Z,17.25
2023-05-25T04:14:39.615Z,13.55
2023-05-25T04:16:42.362Z,16.58
2023-05-25T04:18:45.104Z,18.33
2023-05-25T04:20:47.912Z,18.58
2023-05-25T04:22:51.830Z,15.57
2023-05-25T04:24:54.707Z,13.85
2023-05-25T04:26:57.660Z,20.98
2023-05-25T04:29:01.926Z,13.98
2023-05-25T04:31:05.362Z,15.27
2023-05-25T04:33:08.176Z,8.88
2023-05-25T04:35:10.778Z,16.05
2023-05-25T04:37:13.461Z,13.40
2023-05-25T04:39:17.534Z,16.20
2023-05-25T04:41:20.177Z,16.02
2023-05-25T04:43:22.794Z,13.20
2023-05-25T04:45:25.958Z,13.77
2023-05-25T04:47:29.318Z,21.30
2023-05-25T04:49:32.089Z,13.60
2023-05-25T04:51:35.810Z,11.90
2023-05-25T04:53:38.584Z,19.13
2023-05-25T04:55:42.673Z,15.15
2023-05-25T04:57:45.493Z,16.17
2023-05-25T04:59:48.086Z,14.88
2023-05-25T05:01:53.623Z,33.20
2023-05-25T05:03:56.351Z,17.60
2023-05-25T05:05:59.045Z,14.80
2023-05-25T05:08:03.669Z,17.17
2023-05-25T05:10:07.229Z,19.48
2023-05-25T05:12:12.197Z,14.20
2023-05-25T05:14:14.919Z,18.00
2023-05-25T05:16:17.579Z,15.80
2023-05-25T05:18:20.273Z,16.42
2023-05-25T05:20:22.993Z,19.20
2023-05-25T05:22:25.615Z,19.80
2023-05-25T05:24:28.288Z,19.40
2023-05-25T05:26:34.274Z,13.00
2023-05-25T05:28:48.424Z,17.25
2023-05-25T05:30:51.084Z,19.27
2023-05-25T05:32:53.725Z,20.13
2023-05-25T05:34:56.356Z,16.52
2023-05-25T05:37:00.112Z,18.55
2023-05-25T05:39:03.470Z,13.20
2023-05-25T05:41:11.264Z,19.45
2023-05-25T05:43:15.217Z,15.50
2023-05-25T05:45:19.230Z,17.05
2023-05-25T05:47:22.299Z,16.08
2023-05-25T05:49:24.900Z,14.65
2023-05-25T05:51:27.529Z,17.92
2023-05-25T05:53:30.101Z,17.00
2023-05-25T05:55:32.948Z,13.88
2023-05-25T05:57:35.615Z,13.30
2023-05-25T05:59:38.296Z,17.92
2023-05-25T06:01:44.141Z,14.85
2023-05-25T06:03:47.514Z,17.35
2023-05-25T06:05:50.371Z,19.33
2023-05-25T06:07:53.002Z,20.27
2023-05-25T06:09:56.016Z,13.68
2023-05-25T06:11:58.614Z,15.30
2023-05-25T06:14:01.222Z,18.05
2023-05-25T06:16:03.894Z,14.65
2023-05-25T06:18:08.097Z,14.88
2023-05-25T06:20:11.821Z,21.45
2023-05-25T06:22:14.440Z,20.10
2023-05-25T06:24:17.167Z,21.13
2023-05-25T06:26:19.854Z,17.17
2023-05-25T06:28:22.442Z,15.38
2023-05-25T06:30:25.125Z,24.33
2023-05-25T06:32:27.780Z,17.67
2023-05-25T06:34:32.237Z,18.60
2023-05-25T06:36:34.995Z,25.00
2023-05-25T06:38:37.637Z,21.65
2023-05-25T06:40:40.288Z,20.00
2023-05-25T06:42:43.123Z,18.38
2023-05-25T06:44:45.686Z,18.80
2023-05-25T06:46:48.348Z,24.27
2023-05-25T06:48:51.033Z,18.40
2023-05-25T06:50:55.006Z,20.15
2023-05-25T06:52:59.024Z,20.73
2023-05-25T06:55:03.985Z,26.15
2023-05-25T06:57:07.007Z,20.17
2023-05-25T06:59:09.648Z,19.50
2023-05-25T07:01:12.236Z,21.70
2023-05-25T07:03:14.928Z,19.52
2023-05-25T07:05:17.644Z,17.10
2023-05-25T07:07:22.354Z,18.17
2023-05-25T07:09:24.957Z,20.42
2023-05-25T07:11:28.006Z,23.05
2023-05-25T07:13:30.721Z,19.20
2023-05-25T07:15:33.304Z,22.25
2023-05-25T07:17:36.528Z,18.60
2023-05-25T07:19:39.288Z,19.25
2023-05-25T07:21:41.986Z,18.13
2023-05-25T07:23:45.981Z,17.25
2023-05-25T07:25:48.614Z,20.98
2023-05-25T07:27:55.028Z,17.58
2023-05-25T07:29:57.659Z,22.17
2023-05-25T07:32:00.334Z,31.20
2023-05-25T07:34:03.212Z,19.83
2023-05-25T07:36:06.572Z,17.65
2023-05-25T07:38:10.618Z,20.00
2023-05-25T07:40:14.829Z,18.80
2023-05-25T07:42:20.867Z,19.65
2023-05-25T07:44:23.627Z,20.27
2023-05-25T07:46:26.542Z,16.45
2023-05-25T07:48:29.581Z,22.85
2023-05-25T07:50:32.135Z,20.88
2023-05-25T07:52:34.741Z,24.05
2023-05-25T07:54:40.191Z,22.88
2023-05-25T07:56:44.411Z,23.10
2023-05-25T07:58:47.108Z,19.55
2023-05-25T08:00:50.402Z,17.02
2023-05-25T08:02:53.188Z,20.67
2023-05-25T08:04:56.173Z,16.23
2023-05-25T08:06:58.795Z,19.35
2023-05-25T08:09:01.541Z,20.67
2023-05-25T08:11:04.237Z,19.23
2023-05-25T08:13:08.239Z,20.40
2023-05-25T08:15:11.097Z,19.48
2023-05-25T08:17:13.827Z,20.70
2023-05-25T08:19:16.480Z,21.58
2023-05-25T08:21:19.241Z,20.15
2023-05-25T08:23:21.977Z,17.60
2023-05-25T08:25:24.587Z,18.60
2023-05-25T08:27:27.297Z,16.55
2023-05-25T08:29:31.356Z,24.73
2023-05-25T08:31:34.250Z,18.95
2023-05-25T08:33:38.406Z,18.70
2023-05-25T08:35:42.950Z,18.45
2023-05-25T08:37:46.702Z,19.63
2023-05-25T08:39:49.286Z,23.13
2023-05-25T08:41:52.327Z,21.35
2023-05-25T08:43:55.137Z,18.70
2023-05-25T08:46:04.195Z,21.95
2023-05-25T08:48:13.825Z,16.77
2023-05-25T08:50:18.487Z,18.38
2023-05-25T08:52:23.316Z,18.15
2023-05-25T08:54:30.904Z,19.90
2023-05-25T08:56:36.883Z,27.08
2023-05-25T08:58:46.326Z,19.95
2023-05-25T09:00:55.691Z,18.38
2023-05-25T09:03:06.872Z,18.33
2023-05-25T09:05:09.974Z,21.20
2023-05-25T09:07:13.180Z,23.60
2023-05-25T09:09:15.867Z,23.05
2023-05-25T09:11:32.010Z,16.98
2023-05-25T09:13:39.685Z,24.60
2023-05-25T09:15:42.832Z,18.38
2023-05-25T09:17:45.719Z,23.50
2023-05-25T09:19:51.080Z,20.52
2023-05-25T09:22:03.257Z,17.77
2023-05-25T09:24:17.494Z,20.45
2023-05-25T09:26:20.760Z,21.35
2023-05-25T09:28:27.311Z,21.95
2023-05-25T09:30:32.863Z,18.42
2023-05-25T09:32:36.374Z,22.55
2023-05-25T09:34:39.067Z,16.95
2023-05-25T09:36:43.422Z,18.50
2023-05-25T09:38:46.873Z,24.20
2023-05-25T09:40:49.744Z,16.67
2023-05-25T09:42:52.465Z,25.73
2023-05-25T09:44:55.087Z,16.98
2023-05-25T09:46:57.719Z,23.85
2023-05-25T09:49:01.209Z,19.55
2023-05-25T09:51:03.946Z,24.40
2023-05-25T09:53:08.401Z,19.67
2023-05-25T09:55:12.552Z,22.58
2023-05-25T09:57:16.130Z,20.38
2023-05-25T09:59:18.814Z,19.08
2023-05-25T10:01:21.506Z,25.63
2023-05-25T10:03:24.287Z,20.00
2023-05-25T10:05:26.865Z,20.23
2023-05-25T10:07:30.165Z,16.98
2023-05-25T10:09:38.760Z,22.10
2023-05-25T10:11:44.466Z,20.77
2023-05-25T10:13:48.125Z,16.85
2023-05-25T10:15:54.375Z,21.30
2023-05-25T10:17:59.327Z,20.35
2023-05-25T10:20:02.742Z,24.42
2023-05-25T10:22:14.739Z,16.50
2023-05-25T10:24:27.820Z,23.17
2023-05-25T10:26:36.526Z,19.52
2023-05-25T10:28:41.088Z,20.75
2023-05-25T10:30:44.262Z,22.33
2023-05-25T10:32:48.919Z,17.15
2023-05-25T10:34:53.267Z,17.08
2023-05-25T10:36:57.402Z,19.08
2023-05-25T10:39:02.034Z,22.27
2023-05-25T10:41:05.676Z,19.02
2023-05-25T10:43:09.653Z,19.10
2023-05-25T10:45:13.015Z,16.45
2023-05-25T10:47:17.152Z,16.80
2023-05-25T10:49:28.357Z,13.88
2023-05-25T10:51:38.633Z,16.88
2023-05-25T10:53:45.832Z,16.88
2023-05-25T10:56:01.547Z,18.73
2023-05-25T10:58:13.186Z,19.80
2023-05-25T11:00:16.846Z,14.93
2023-05-25T11:02:23.363Z,15.65
2023-05-25T11:04:26.320Z,16.73
2023-05-25T11:07:08.292Z,14.80
2023-05-25T11:09:25.197Z,11.57
2023-05-25T11:12:03.513Z,15.13
2023-05-25T11:14:22.112Z,18.30
2023-05-25T11:16:36.314Z,13.52
2023-05-25T11:18:39.320Z,13.30
2023-05-25T11:20:42.160Z,16.98
2023-05-25T11:22:44.825Z,17.50
2023-05-25T11:24:48.176Z,16.25
2023-05-25T11:26:55.991Z,15.50
2023-05-25T11:28:59.872Z,15.55
2023-05-25T11:31:07.822Z,16.73
2023-05-25T11:33:11.040Z,17.35
2023-05-25T11:35:14.705Z,13.98
2023-05-25T11:37:21.090Z,17.95
2023-05-25T11:39:24.102Z,16.67
2023-05-25T11:41:26.849Z,15.52
2023-05-25T11:43:29.756Z,18.48
2023-05-25T11:45:34.439Z,14.77
2023-05-25T11:47:38.502Z,13.82
2023-05-25T11:49:44.179Z,17.27
2023-05-25T11:51:46.844Z,14.68
2023-05-25T11:53:49.759Z,14.38
2023-05-25T11:56:00.563Z,15.25
2023-05-25T11:58:10.444Z,16.80
2023-05-25T12:00:14.357Z,14.57
2023-05-25T12:02:17.174Z,17.00
2023-05-25T12:04:23.857Z,15.75
2023-05-25T12:06:28.535Z,16.15
2023-05-25T12:08:34.360Z,13.75
2023-05-25T12:10:50.637Z,16.92
2023-05-25T12:12:58.122Z,15.30
2023-05-25T12:15:00.839Z,15.18
2023-05-25T12:17:03.613Z,16.10
2023-05-25T12:19:07.538Z,15.77
2023-05-25T12:21:12.267Z,11.75
2023-05-25T12:23:15.094Z,13.80
2023-05-25T12:25:21.216Z,13.15
2023-05-25T12:27:24.023Z,14.52
2023-05-25T12:29:26.784Z,18.42
2023-05-25T12:31:31.496Z,15.50
2023-05-25T12:33:34.227Z,18.60
2023-05-25T12:35:46.797Z,16.10
2023-05-25T12:37:50.836Z,18.40
2023-05-25T12:39:53.461Z,15.32
2023-05-25T12:41:57.281Z,11.77
2023-05-25T12:44:00.644Z,14.45
2023-05-25T12:46:03.666Z,16.48
2023-05-25T12:48:06.544Z,14.95
2023-05-25T12:50:13.741Z,17.75
2023-05-25T12:52:35.214Z,19.55
2023-05-25T12:54:48.415Z,14.75
2023-05-25T12:56:57.263Z,16.75
2023-05-25T12:59:17.759Z,11.63
2023-05-25T13:01:20.375Z,18.40
2023-05-25T13:03:23.033Z,16.67
2023-05-25T13:05:26.828Z,14.93
2023-05-25T13:07:30.138Z,12.10
2023-05-25T13:09:33.696Z,12.00
2023-05-25T13:11:37.727Z,13.10
2023-05-25T13:13:40.640Z,16.95
2023-05-25T13:15:45.349Z,14.02
2023-05-25T13:17:48.543Z,17.10
2023-05-25T13:19:51.223Z,15.68
2023-05-25T13:21:55.946Z,15.23
2023-05-25T13:23:58.575Z,13.13
2023-05-25T13:26:01.165Z,14.27
2023-05-25T13:28:06.383Z,11.50
2023-05-25T13:30:11.773Z,15.70
2023-05-25T13:32:14.844Z,11.63
2023-05-25T13:34:17.671Z,12.70
2023-05-25T13:36:20.457Z,14.45
2023-05-25T13:38:23.070Z,14.35
2023-05-25T13:40:25.715Z,16.13
2023-05-25T13:42:28.300Z,12.50
2023-05-25T13:44:33.948Z,14.52
2023-05-25T13:46:37.773Z,17.73
2023-05-25T13:48:40.727Z,9.10
2023-05-25T13:50:45.064Z,10.02
2023-05-25T13:52:49.097Z,15.40
2023-05-25T13:54:51.794Z,11.02
2023-05-25T13:56:54.401Z,12.60
2023-05-25T13:58:57.081Z,13.98
2023-05-25T14:01:01.132Z,10.20
2023-05-25T14:03:03.917Z,16.15
2023-05-25T14:05:07.400Z,14.50
2023-05-25T14:07:10.007Z,11.18
2023-05-25T14:09:13.573Z,11.52
2023-05-25T14:11:18.361Z,7.38
2023-05-25T14:13:22.714Z,11.60
2023-05-25T14:15:25.845Z,8.40
2023-05-25T14:17:29.814Z,9.63
2023-05-25T14:19:33.066Z,9.65
2023-05-25T14:21:35.787Z,8.40
2023-05-25T14:23:38.362Z,12.98
2023-05-25T14:25:44.232Z,14.25
2023-05-25T14:27:47.011Z,9.00
2023-05-25T14:29:49.901Z,8.77
2023-05-25T14:31:52.809Z,9.35
2023-05-25T14:33:56.951Z,9.10
2023-05-25T14:35:59.531Z,8.80
2023-05-25T14:38:02.164Z,12.02
2023-05-25T14:40:05.497Z,12.50
2023-05-25T14:42:08.604Z,14.20
2023-05-25T14:44:11.256Z,12.18
2023-05-25T14:46:14.160Z,8.98
2023-05-25T14:48:18.008Z,9.05
2023-05-25T14:50:22.014Z,10.32
2023-05-25T14:52:24.656Z,7.40
2023-05-25T14:54:27.685Z,11.65
2023-05-25T14:56:30.640Z,7.45
2023-05-25T14:58:34.169Z,13.20
2023-05-25T15:00:36.840Z,14.27
2023-05-25T15:02:39.487Z,12.43
2023-05-25T15:04:42.243Z,9.07
2023-05-25T15:06:46.201Z,7.95
2023-05-25T15:08:48.828Z,10.18
2023-05-25T15:10:52.666Z,14.38
2023-05-25T15:12:55.285Z,7.15
2023-05-25T15:14:57.843Z,12.23
2023-05-25T15:17:00.597Z,10.85
2023-05-25T15:19:03.237Z,9.85
2023-05-25T15:21:06.213Z,12.65
2023-05-25T15:23:10.151Z,9.77
2023-05-25T15:25:16.860Z,9.88
2023-05-25T15:27:22.091Z,9.07
2023-05-25T15:29:24.753Z,11.95
2023-05-25T15:31:27.379Z,10.57
2023-05-25T15:33:39.900Z,9.30
2023-05-25T15:35:51.002Z,9.18
2023-05-25T15:37:53.643Z,9.77
2023-05-25T15:39:57.606Z,9.70
2023-05-25T15:42:00.193Z,10.30
2023-05-25T15:44:02.998Z,8.32
2023-05-25T15:46:05.661Z,9.90
2023-05-25T15:48:10.171Z,9.80
2023-05-25T15:50:12.959Z,10.20
2023-05-25T15:52:16.337Z,12.18
2023-05-25T15:54:18.950Z,8.73
2023-05-25T15:56:23.048Z,9.75
2023-05-25T15:58:25.618Z,10.90
2023-05-25T16:00:30.546Z,11.75
2023-05-25T16:02:33.435Z,11.38
2023-05-25T16:04:36.060Z,12.93
2023-05-25T16:06:39.062Z,11.85
2023-05-25T16:08:41.684Z,13.85
2023-05-25T16:10:44.531Z,10.70
2023-05-25T16:12:48.548Z,11.88
2023-05-25T16:14:51.147Z,9.38
2023-05-25T16:16:53.843Z,14.00
2023-05-25T16:18:56.608Z,9.85
2023-05-25T16:20:59.278Z,13.10
2023-05-25T16:23:02.592Z,10.50
2023-05-25T16:25:05.768Z,10.18
2023-05-25T16:27:08.401Z,12.50
2023-05-25T16:29:12.400Z,10.60
2023-05-25T16:31:15.647Z,11.20
2023-05-25T16:33:18.312Z,13.43
2023-05-25T16:35:21.077Z,14.15
2023-05-25T16:37:23.688Z,12.63
2023-05-25T16:39:26.269Z,11.77
2023-05-25T16:41:28.866Z,12.38
2023-05-25T16:43:31.483Z,10.85
2023-05-25T16:45:35.544Z,8.57
2023-05-25T16:47:38.201Z,13.65
2023-05-25T16:49:40.974Z,10.30
2023-05-25T16:51:43.545Z,8.68
2023-05-25T16:53:46.148Z,10.60
2023-05-25T16:55:48.783Z,13.68
2023-05-25T16:57:51.371Z,13.60
2023-05-25T16:59:54.260Z,12.50
2023-05-25T17:01:59.190Z,11.48
2023-05-25T17:04:01.991Z,13.27
2023-05-25T17:06:04.851Z,13.35
2023-05-25T17:08:07.457Z,14.48
2023-05-25T17:10:10.462Z,13.32
2023-05-25T17:12:13.137Z,10.38
2023-05-25T17:14:15.831Z,12.90
2023-05-25T17:16:18.503Z,14.15
2023-05-25T17:18:22.654Z,8.55
2023-05-25T17:20:25.339Z,13.90
2023-05-25T17:22:28.061Z,17.02
2023-05-25T17:24:31.106Z,12.60
2023-05-25T17:26:36.090Z,11.90
2023-05-25T17:28:38.724Z,13.88
2023-05-25T17:30:41.357Z,7.68
2023-05-25T17:32:43.990Z,11.32
2023-05-25T17:34:48.014Z,10.23
2023-05-25T17:36:50.625Z,12.98
2023-05-25T17:38:53.276Z,10.27
2023-05-25T17:40:55.902Z,11.52
2023-05-25T17:42:58.464Z,9.10
2023-05-25T17:45:01.219Z,10.77
2023-05-25T17:47:03.918Z,10.60
2023-05-25T17:49:06.528Z,9.23
2023-05-25T17:51:13.041Z,8.85
2023-05-25T17:53:16.054Z,12.07
2023-05-25T17:55:20.442Z,12.20
2023-05-25T17:57:23.066Z,12.32
2023-05-25T17:59:25.690Z,15.23
2023-05-25T18:01:28.418Z,9.55
2023-05-25T18:03:31.158Z,14.50
2023-05-25T18:05:33.808Z,11.77
2023-05-25T18:07:37.760Z,11.55
2023-05-25T18:09:40.350Z,11.85
2023-05-25T18:11:42.934Z,14.15
2023-05-25T18:13:45.674Z,13.10
2023-05-25T18:15:48.265Z,13.55
2023-05-25T18:17:50.910Z,10.38
2023-05-25T18:19:53.640Z,15.02
2023-05-25T18:21:56.317Z,10.80
2023-05-25T18:24:00.415Z,15.45
2023-05-25T18:26:04.596Z,14.27
2023-05-25T18:28:07.241Z,13.15
2023-05-25T18:30:10.817Z,13.00
2023-05-25T18:32:13.456Z,13.68
2023-05-25T18:34:16.185Z,13.52
2023-05-25T18:36:18.797Z,11.65
2023-05-25T18:38:21.467Z,13.35
2023-05-25T18:40:25.655Z,13.90
2023-05-25T18:42:28.280Z,10.82
2023-05-25T18:44:30.951Z,12.90
2023-05-25T18:46:33.590Z,11.68
2023-05-25T18:48:36.524Z,15.60
2023-05-25T18:50:40.149Z,15.23
2023-05-25T18:52:42.808Z,11.75
2023-05-25T18:54:46.192Z,10.77
2023-05-25T18:56:50.176Z,13.45
2023-05-25T18:58:54.708Z,15.15
2023-05-25T19:00:57.305Z,10.50
2023-05-25T19:02:59.973Z,12.07
2023-05-25T19:05:02.713Z,13.02
2023-05-25T19:07:05.624Z,16.52
2023-05-25T19:09:08.617Z,14.68
2023-05-25T19:11:11.236Z,10.90
2023-05-25T19:13:15.369Z,13.57
2023-05-25T19:15:18.051Z,22.48
2023-05-25T19:17:21.008Z,17.40
2023-05-25T19:19:23.712Z,15.15
2023-05-25T19:21:26.752Z,15.82
2023-05-25T19:23:29.402Z,13.13
2023-05-25T19:25:32.088Z,15.90
2023-05-25T19:27:34.775Z,14.13
2023-05-25T19:29:38.739Z,15.77
2023-05-25T19:31:41.382Z,9.18
2023-05-25T19:33:44.046Z,13.25
2023-05-25T19:35:46.778Z,14.88
2023-05-25T19:37:49.521Z,13.07
2023-05-25T19:39:52.115Z,11.65
2023-05-25T19:41:54.749Z,12.15
2023-05-25T19:43:57.349Z,21.17
2023-05-25T19:46:01.375Z,13.40
2023-05-25T19:48:04.132Z,19.95
2023-05-25T19:50:08.418Z,20.05
2023-05-25T19:52:11.106Z,18.60
2023-05-25T19:54:13.771Z,16.75
2023-05-25T19:56:16.373Z,17.70
2023-05-25T19:58:19.005Z,13.05
2023-05-25T20:00:26.708Z,22.38
2023-05-25T20:02:31.400Z,21.55
2023-05-25T20:04:34.179Z,12.77
2023-05-25T20:06:37.470Z,13.23
2023-05-25T20:08:40.090Z,11.10
2023-05-25T20:10:44.607Z,11.82
2023-05-25T20:12:47.194Z,13.35
2023-05-25T20:14:49.919Z,11.90
2023-05-25T20:16:54.320Z,11.20
2023-05-25T20:18:58.287Z,17.25
2023-05-25T20:21:00.864Z,11.90
2023-05-25T20:23:03.850Z,14.63
2023-05-25T20:25:07.199Z,14.23
2023-05-25T20:27:09.884Z,22.35
2023-05-25T20:29:12.496Z,22.80
2023-05-25T20:31:15.107Z,15.75
2023-05-25T20:33:17.893Z,17.15
2023-05-25T20:35:21.850Z,17.05
2023-05-25T20:37:24.575Z,16.60
2023-05-25T20:39:27.275Z,12.90
2023-05-25T20:41:31.742Z,17.85
2023-05-25T20:43:34.348Z,15.63
2023-05-25T20:45:38.487Z,17.40
2023-05-25T20:47:41.653Z,17.35
2023-05-25T20:49:44.248Z,19.08
2023-05-25T20:51:50.036Z,15.70
2023-05-25T20:53:52.737Z,19.85
2023-05-25T20:55:55.409Z,20.15
2023-05-25T20:57:59.676Z,26.60
2023-05-25T21:00:02.326Z,20.58
2023-05-25T21:02:05.698Z,27.48
2023-05-25T21:04:08.495Z,25.58
2023-05-25T21:06:11.174Z,29.42
2023-05-25T21:08:15.167Z,26.23
2023-05-25T21:10:17.881Z,26.40
2023-05-25T21:12:20.468Z,22.80
2023-05-25T21:14:23.098Z,22.08
2023-05-25T21:16:26.184Z,27.48
2023-05-25T21:18:28.805Z,22.67
2023-05-25T21:20:31.462Z,18.58
2023-05-25T21:22:34.111Z,19.30
2023-05-25T21:24:38.059Z,18.55
2023-05-25T21:26:41.005Z,17.83
2023-05-25T21:28:43.644Z,15.65
2023-05-25T21:30:46.254Z,23.00
2023-05-25T21:32:48.939Z,23.73
2023-05-25T21:34:52.729Z,17.98
2023-05-25T21:36:55.323Z,21.88
2023-05-25T21:38:57.943Z,24.58
2023-05-25T21:41:01.884Z,24.45
2023-05-25T21:43:04.956Z,21.30
2023-05-25T21:45:08.429Z,22.17
2023-05-25T21:47:11.148Z,19.63
2023-05-25T21:49:13.858Z,15.65
2023-05-25T21:51:16.467Z,21.23
2023-05-25T21:53:19.309Z,20.33
2023-05-25T21:55:22.048Z,16.55
2023-05-25T21:57:25.993Z,23.42
2023-05-25T21:59:28.634Z,15.52
2023-05-25T22:01:31.295Z,20.08
2023-05-25T22:03:33.984Z,19.08
2023-05-25T22:05:36.682Z,18.80
2023-05-25T22:07:39.271Z,19.92
2023-05-25T22:09:41.889Z,18.85
2023-05-25T22:11:44.555Z,15.93
2023-05-25T22:13:48.463Z,18.00
2023-05-25T22:15:51.189Z,15.75
2023-05-25T22:17:53.848Z,15.52
2023-05-25T22:20:07.345Z,20.77
2023-05-25T22:22:11.009Z,16.52
2023-05-25T22:24:13.610Z,15.60
2023-05-25T22:26:16.253Z,21.20
2023-05-25T22:28:18.867Z,16.63
2023-05-25T22:30:22.828Z,16.20
2023-05-25T22:32:26.867Z,17.98
2023-05-25T22:34:32.108Z,18.58
2023-05-25T22:36:34.737Z,16.13
2023-05-25T22:38:37.537Z,15.93
2023-05-25T22:40:40.160Z,16.70
2023-05-25T22:42:45.037Z,14.65
2023-05-25T22:44:49.217Z,13.73
2023-05-25T22:46:53.203Z,17.02
2023-05-25T22:48:55.838Z,15.15
2023-05-25T22:50:58.415Z,18.63
2023-05-25T22:53:01.075Z,14.65
2023-05-25T22:55:03.836Z,12.90
2023-05-25T22:57:07.035Z,13.52
2023-05-25T22:59:09.602Z,13.20
2023-05-25T23:01:12.203Z,15.48
2023-05-25T23:03:16.381Z,11.45
2023-05-25T23:05:19.042Z,9.52
2023-05-25T23:07:21.842Z,15.68
2023-05-25T23:09:24.477Z,14.82
2023-05-25T23:11:27.219Z,15.45
2023-05-25T23:13:29.895Z,15.48
2023-05-25T23:15:32.534Z,16.35
2023-05-25T23:17:35.483Z,13.35
2023-05-25T23:19:40.323Z,11.75
2023-05-25T23:21:42.950Z,14.95
2023-05-25T23:23:45.540Z,17.38
2023-05-25T23:25:48.311Z,13.93
2023-05-25T23:27:50.928Z,12.40
2023-05-25T23:29:56.121Z,12.30
2023-05-25T23:31:58.716Z,14.02
2023-05-25T23:34:01.400Z,11.75
2023-05-25T23:36:05.711Z,11.20
2023-05-25T23:38:08.316Z,13.05
2023-05-25T23:40:12.046Z,18.02
2023-05-25T23:42:15.479Z,11.48
2023-05-25T23:44:18.151Z,12.75
2023-05-25T23:46:20.851Z,11.00
2023-05-25T23:48:23.480Z,13.20
2023-05-25T23:50:26.131Z,18.23
2023-05-25T23:52:30.108Z,11.95
2023-05-25T23:54:32.732Z,16.48
2023-05-25T23:56:35.521Z,10.65
2023-05-25T23:58:38.093Z,11.30
